Time;durP1;ratioP1;P1;durP2;ratioP2;P2;SDS_P1;SDS_P2;PMS_P1;PMS_P2;Temp;Humidity;BMP_temperature;BMP_pressure;BME280_temperature;BME280_humidity;BME280_pressure;Samples;Min_cycle;Max_cycle;Signal;HPM_P1;HPM_P2
2023/09/01 00:01:03;;;;;;;;;;;;;;;14.76;89.84;95419.25;5135396;27;977;-58
2023/09/01 00:03:29;;;;;;;;;;;;;;;14.89;89.36;95418.66;5134998;27;1040;-58
2023/09/01 00:05:58;;;;;;;;;;;;;;;14.83;89.21;95422.91;5126211;27;1109;-58
2023/09/01 00:08:25;;;;;;;;;;;;;;;14.86;89.53;95421.69;5096469;28;1906;-58
2023/09/01 00:10:52;;;;;;;;;;;;;;;14.92;89.36;95420.97;5114486;28;1092;-58
2023/09/01 00:13:18;;;;;;;;;;;;;;;14.91;88.86;95418.44;5114347;28;965;-58
2023/09/01 00:15:44;;;;;;;;;;;;;;;14.88;89.33;95418.81;5114612;28;962;-58
2023/09/01 00:18:11;;;;;;;;;;;;;;;14.93;89.04;95411.03;5114041;28;1040;-58
2023/09/01 00:20:37;;;;;;;;;;;;;;;14.95;88.97;95414.38;5112632;28;1209;-58
2023/09/01 00:23:03;;;;;;;;;;;;;;;14.74;89.64;95412.34;5094064;28;1134;-58
2023/09/01 00:25:30;;;;;;;;;;;;;;;14.68;89.43;95408.53;5093621;28;1037;-58
2023/09/01 00:27:55;;;;;;;;;;;;;;;14.68;89.20;95405.00;5093750;28;1910;-58
2023/09/01 00:30:21;;;;;;;;;;;;;;;14.64;89.44;95402.69;5093659;28;1072;-58
2023/09/01 00:32:47;;;;;;;;;;;;;;;14.66;90.03;95409.75;5093614;28;1033;-58
2023/09/01 00:35:13;;;;;;;;;;;;;;;14.73;89.54;95394.56;5093365;28;1057;-58
2023/09/01 00:37:39;;;;;;;;;;;;;;;14.70;89.41;95402.97;5093864;28;1021;-58
2023/09/01 00:40:06;;;;;;;;;;;;;;;14.72;88.67;95401.81;5093791;28;1053;-58
2023/09/01 00:42:32;;;;;;;;;;;;;;;14.81;88.40;95399.84;5093566;28;958;-58
2023/09/01 00:44:58;;;;;;;;;;;;;;;14.62;89.06;95410.09;5093571;28;1048;-58
2023/09/01 00:47:24;;;;;;;;;;;;;;;14.54;89.65;95412.00;5093428;28;1056;-58
2023/09/01 00:49:50;;;;;;;;;;;;;;;14.76;88.72;95415.69;5075370;28;1910;-58
2023/09/01 00:52:16;;;;;;;;;;;;;;;14.68;88.93;95407.72;5093252;28;1040;-58
2023/09/01 00:54:42;;;;;;;;;;;;;;;14.76;88.81;95413.88;5093373;28;1024;-57
2023/09/01 00:57:08;;;;;;;;;;;;;;;14.79;88.33;95413.50;5093473;28;980;-58
2023/09/01 00:59:34;;;;;;;;;;;;;;;14.83;88.32;95416.66;5093355;28;1052;-57
2023/09/01 01:02:00;;;;;;;;;;;;;;;14.95;87.80;95408.97;5093606;28;974;-57
2023/09/01 01:04:26;;;;;;;;;;;;;;;14.95;87.48;95409.84;5093481;28;972;-57
2023/09/01 01:06:58;;;;;;;;;;;;;;;14.75;88.66;95412.19;5109817;28;1392;-57
2023/09/01 01:09:33;;;;;;;;;;;;;;;14.70;88.16;95416.44;5113773;28;1978;-58
2023/09/01 01:12:08;;;;;;;;;;;;;;;14.55;89.34;95422.59;5113936;28;977;-58
2023/09/01 01:14:41;;;;;;;;;;;;;;;14.50;89.93;95414.19;5113532;28;1040;-57
2023/09/01 01:17:08;;;;;;;;;;;;;;;14.32;90.30;95416.31;5113449;28;1043;-58
2023/09/01 01:19:48;;;;;;;;;;;;;;;14.31;91.02;95415.50;5114422;27;2444;-57
2023/09/01 01:22:14;;;;;;;;;;;;;;;14.27;90.75;95410.66;5128926;28;1122;-58
2023/09/01 01:24:40;;;;;;;;;;;;;;;14.31;91.07;95407.44;5134316;28;1049;-58
2023/09/01 01:27:06;;;;;;;;;;;;;;;14.47;90.24;95402.97;5133936;28;1044;-57
2023/09/01 01:29:32;;;;;;;;;;;;;;;14.53;89.87;95407.63;5133718;28;1914;-57
2023/09/01 01:31:58;;;;;;;;;;;;;;;14.61;89.54;95405.75;5134174;28;1027;-58
2023/09/01 01:34:28;;;;;;;;;;;;;;;14.39;89.65;95404.69;5134016;28;969;-57
2023/09/01 01:37:00;;;;;;;;;;;;;;;14.37;89.98;95408.56;5134203;28;1206;-57
2023/09/01 01:39:27;;;;;;;;;;;;;;;14.38;90.40;95404.84;5134119;28;1182;-58
2023/09/01 01:42:05;;;;;;;;;;;;;;;14.41;90.05;95404.50;5133760;28;970;-58
2023/09/01 01:44:34;;;;;;;;;;;;;;;14.55;89.38;95409.13;5134027;27;973;-58
2023/09/01 01:47:00;;;;;;;;;;;;;;;14.50;89.35;95406.13;5136989;27;1092;-58
2023/09/01 01:49:30;;;;;;;;;;;;;;;14.37;89.39;95413.94;5137542;27;2000;-58
2023/09/01 01:51:57;;;;;;;;;;;;;;;14.15;90.29;95403.00;5137914;27;958;-58
2023/09/01 01:54:23;;;;;;;;;;;;;;;14.38;89.43;95410.22;5137689;27;1019;-58
2023/09/01 01:56:49;;;;;;;;;;;;;;;14.23;90.29;95405.63;5137874;27;1044;-58
2023/09/01 01:59:16;;;;;;;;;;;;;;;14.22;90.00;95409.31;5137697;27;1023;-58
2023/09/01 02:01:42;;;;;;;;;;;;;;;14.41;89.09;95412.56;5137648;27;1015;-58
2023/09/01 02:04:08;;;;;;;;;;;;;;;14.38;89.07;95416.47;5137690;27;1035;-58
2023/09/01 02:06:34;;;;;;;;;;;;;;;14.35;89.60;95403.38;5137181;27;1099;-58
2023/09/01 02:09:00;;;;;;;;;;;;;;;14.17;89.63;95409.03;5137488;27;1921;-58
2023/09/01 02:11:27;;;;;;;;;;;;;;;14.06;90.09;95414.81;5137403;27;1043;-58
2023/09/01 02:13:52;;;;;;;;;;;;;;;14.00;90.09;95404.75;5137425;27;992;-57
2023/09/01 02:16:18;;;;;;;;;;;;;;;13.85;90.98;95404.66;5137337;27;951;-58
2023/09/01 02:18:44;;;;;;;;;;;;;;;13.85;91.81;95407.34;5137077;27;1036;-57
2023/09/01 02:21:17;;;;;;;;;;;;;;;13.91;91.26;95405.81;5137194;27;1220;-57
2023/09/01 02:23:43;;;;;;;;;;;;;;;13.97;90.98;95397.88;5137015;27;1039;-58
2023/09/01 02:26:08;;;;;;;;;;;;;;;14.03;90.84;95399.84;5136975;27;913;-58
2023/09/01 02:28:34;;;;;;;;;;;;;;;14.17;90.32;95402.81;5137036;27;1913;-57
2023/09/01 02:31:07;;;;;;;;;;;;;;;14.40;89.25;95401.00;5137155;27;1016;-57
2023/09/01 02:33:33;;;;;;;;;;;;;;;14.42;89.35;95403.50;5136916;27;1048;-57
2023/09/01 02:36:19;;;;;;;;;;;;;;;14.32;89.93;95408.25;5136863;27;1015;-56
2023/09/01 02:38:45;;;;;;;;;;;;;;;13.86;90.41;95409.84;5136706;27;1660;-58
2023/09/01 02:41:10;;;;;;;;;;;;;;;13.73;90.86;95404.19;5136770;27;1024;-58
2023/09/01 02:43:36;;;;;;;;;;;;;;;13.74;91.14;95410.44;5136853;27;1124;-58
2023/09/01 02:46:04;;;;;;;;;;;;;;;13.61;91.08;95402.91;5136669;27;1048;-58
2023/09/01 02:48:30;;;;;;;;;;;;;;;13.63;91.59;95408.94;5136483;27;2000;-58
2023/09/01 02:50:58;;;;;;;;;;;;;;;13.86;90.50;95409.84;5136467;27;1003;-57
2023/09/01 02:53:24;;;;;;;;;;;;;;;13.96;90.49;95416.88;5136602;27;1293;-58
2023/09/01 02:55:50;;;;;;;;;;;;;;;13.95;90.51;95412.53;5136633;27;969;-57
2023/09/01 02:58:16;;;;;;;;;;;;;;;13.94;90.09;95416.19;5134986;27;1039;-58
2023/09/01 03:00:44;;;;;;;;;;;;;;;13.69;91.42;95408.25;5136652;27;1032;-57
2023/09/01 03:03:10;;;;;;;;;;;;;;;13.88;90.89;95417.75;5136218;27;1083;-59
2023/09/01 03:05:36;;;;;;;;;;;;;;;13.90;90.49;95413.03;5129997;27;1218;-58
2023/09/01 03:08:02;;;;;;;;;;;;;;;13.90;90.43;95414.88;5115834;28;1991;-57
2023/09/01 03:10:29;;;;;;;;;;;;;;;13.91;90.73;95422.78;5115040;28;1133;-57
2023/09/01 03:12:56;;;;;;;;;;;;;;;14.01;90.28;95411.81;5115846;28;978;-57
2023/09/01 03:15:22;;;;;;;;;;;;;;;14.05;91.09;95415.81;5115339;28;1099;-58
2023/09/01 03:17:48;;;;;;;;;;;;;;;14.03;91.03;95415.16;5115460;28;1048;-58
2023/09/01 03:20:14;;;;;;;;;;;;;;;13.87;91.02;95421.47;5115256;28;1037;-57
2023/09/01 03:22:40;;;;;;;;;;;;;;;13.84;90.41;95421.78;5096330;28;1185;-58
2023/09/01 03:25:09;;;;;;;;;;;;;;;13.85;90.52;95421.63;5095032;28;1068;-58
2023/09/01 03:27:39;;;;;;;;;;;;;;;13.76;90.73;95419.97;5095114;28;1060;-58
2023/09/01 03:30:05;;;;;;;;;;;;;;;13.40;92.51;95439.25;5094720;28;1910;-58
2023/09/01 03:32:32;;;;;;;;;;;;;;;13.57;92.12;95428.47;5094669;28;1063;-58
2023/09/01 03:34:58;;;;;;;;;;;;;;;13.72;91.28;95425.88;5094616;28;1146;-56
2023/09/01 03:37:24;;;;;;;;;;;;;;;13.73;91.39;95420.31;5076817;28;1079;-56
2023/09/01 03:39:50;;;;;;;;;;;;;;;13.67;92.14;95429.91;5094889;28;1011;-57
2023/09/01 03:42:16;;;;;;;;;;;;;;;13.72;91.18;95429.41;5094239;28;1111;-57
2023/09/01 03:44:42;;;;;;;;;;;;;;;13.60;91.51;95428.94;5094643;28;1000;-56
2023/09/01 03:47:08;;;;;;;;;;;;;;;13.59;91.96;95438.00;5094502;28;1091;-56
2023/09/01 03:49:34;;;;;;;;;;;;;;;13.60;92.16;95431.63;5094488;28;1909;-56
2023/09/01 03:52:00;;;;;;;;;;;;;;;13.55;92.00;95436.69;5094560;28;1054;-56
2023/09/01 03:54:26;;;;;;;;;;;;;;;13.64;91.68;95448.25;5094424;28;990;-56
2023/09/01 03:56:52;;;;;;;;;;;;;;;13.74;91.26;95432.75;5094442;28;1000;-56
2023/09/01 03:59:19;;;;;;;;;;;;;;;13.68;91.52;95438.84;5094358;28;1032;-56
2023/09/01 04:01:45;;;;;;;;;;;;;;;13.65;91.79;95440.00;5094262;28;996;-56
2023/09/01 04:04:11;;;;;;;;;;;;;;;13.72;92.45;95442.84;5094032;28;950;-58
2023/09/01 04:06:38;;;;;;;;;;;;;;;13.74;92.19;95450.75;5108594;28;1111;-58
2023/09/01 04:09:05;;;;;;;;;;;;;;;13.64;91.41;95464.38;5113983;28;1901;-56
2023/09/01 04:11:31;;;;;;;;;;;;;;;13.48;92.16;95459.88;5114330;28;1111;-56
2023/09/01 04:13:58;;;;;;;;;;;;;;;13.37;93.38;95469.09;5114446;28;1042;-56
2023/09/01 04:16:24;;;;;;;;;;;;;;;13.58;92.80;95459.66;5114542;28;958;-56
2023/09/01 04:18:51;;;;;;;;;;;;;;;13.71;92.60;95459.13;5114518;28;968;-55
2023/09/01 04:21:17;;;;;;;;;;;;;;;13.78;92.19;95460.13;5121562;27;1212;-56
2023/09/01 04:23:43;;;;;;;;;;;;;;;13.88;91.99;95465.28;5134972;27;983;-56
2023/09/01 04:26:09;;;;;;;;;;;;;;;13.88;92.20;95463.44;5134896;27;1052;-57
2023/09/01 04:28:35;;;;;;;;;;;;;;;13.99;91.71;95462.22;5134612;27;1987;-55
2023/09/01 04:31:03;;;;;;;;;;;;;;;14.36;88.62;95468.75;5135021;27;1024;-56
2023/09/01 04:33:29;;;;;;;;;;;;;;;14.52;87.60;95463.28;5134546;27;1034;-56
2023/09/01 04:35:58;;;;;;;;;;;;;;;14.46;88.56;95464.00;5134594;27;1052;-55
2023/09/01 04:38:24;;;;;;;;;;;;;;;14.37;90.21;95460.50;5134787;27;1044;-56
2023/09/01 04:40:53;;;;;;;;;;;;;;;14.60;90.11;95459.72;5134455;27;1072;-56
2023/09/01 04:43:20;;;;;;;;;;;;;;;14.79;89.90;95455.72;5134407;27;1316;-56
2023/09/01 04:45:47;;;;;;;;;;;;;;;15.08;87.93;95459.53;5134463;27;968;-57
2023/09/01 04:48:13;;;;;;;;;;;;;;;15.19;87.79;95461.78;5134491;27;1906;-56
2023/09/01 04:50:40;;;;;;;;;;;;;;;15.37;87.49;95465.00;5134616;27;1036;-56
2023/09/01 04:53:06;;;;;;;;;;;;;;;15.41;88.22;95465.47;5134413;27;1243;-56
2023/09/01 04:55:32;;;;;;;;;;;;;;;15.33;88.67;95474.47;5134236;27;1082;-56
2023/09/01 04:57:58;;;;;;;;;;;;;;;15.64;87.87;95475.34;5134618;27;1028;-56
2023/09/01 05:00:24;;;;;;;;;;;;;;;16.04;85.19;95474.06;5134255;28;977;-56
2023/09/01 05:02:50;;;;;;;;;;;;;;;16.15;84.47;95483.56;5134255;28;1023;-57
2023/09/01 05:05:16;;;;;;;;;;;;;;;16.13;84.79;95486.44;5130765;28;1227;-57
2023/09/01 05:07:42;;;;;;;;;;;;;;;16.08;85.29;95488.03;5113961;28;1004;-57
2023/09/01 05:10:09;;;;;;;;;;;;;;;16.04;86.65;95486.75;5113850;28;1969;-57
2023/09/01 05:12:36;;;;;;;;;;;;;;;16.20;86.01;95495.47;5095676;28;1018;-56
2023/09/01 05:15:03;;;;;;;;;;;;;;;16.29;86.93;95498.88;5113614;28;1049;-57
2023/09/01 05:17:29;;;;;;;;;;;;;;;16.48;85.21;95502.84;5113399;28;1032;-57
2023/09/01 05:19:56;;;;;;;;;;;;;;;16.61;84.99;95502.19;5113869;28;1019;-57
2023/09/01 05:22:22;;;;;;;;;;;;;;;16.84;84.35;95493.94;5100954;28;1149;-57
2023/09/01 05:24:49;;;;;;;;;;;;;;;17.05;83.17;95497.69;5097314;28;1047;-56
2023/09/01 05:27:18;;;;;;;;;;;;;;;17.35;81.03;95493.81;5097313;28;1064;-56
2023/09/01 05:29:45;;;;;;;;;;;;;;;17.55;78.46;95496.69;5097174;28;1997;-57
2023/09/01 05:32:12;;;;;;;;;;;;;;;17.55;78.32;95498.56;5097229;28;961;-57
2023/09/01 05:34:38;;;;;;;;;;;;;;;17.68;77.18;95495.97;5097301;28;995;-56
2023/09/01 05:37:04;;;;;;;;;;;;;;;17.86;77.33;95490.06;5097140;28;1045;-56
2023/09/01 05:39:30;;;;;;;;;;;;;;;17.91;76.89;95492.19;5096809;28;1096;-57
2023/09/01 05:41:56;;;;;;;;;;;;;;;18.08;76.53;95487.28;5096915;28;984;-57
2023/09/01 05:44:22;;;;;;;;;;;;;;;18.26;76.37;95484.88;5096681;28;1053;-57
2023/09/01 05:46:48;;;;;;;;;;;;;;;18.22;77.51;95486.31;5096764;28;1044;-56
2023/09/01 05:49:14;;;;;;;;;;;;;;;18.24;76.65;95486.94;5096783;28;1993;-57
2023/09/01 05:51:40;;;;;;;;;;;;;;;18.35;76.67;95499.09;5096942;28;1022;-57
2023/09/01 05:54:06;;;;;;;;;;;;;;;18.37;78.04;95496.19;5078873;28;1045;-57
2023/09/01 05:56:32;;;;;;;;;;;;;;;18.61;75.52;95492.09;5096827;28;1055;-57
2023/09/01 05:58:58;;;;;;;;;;;;;;;18.76;74.31;95492.78;5096564;28;977;-57
2023/09/01 06:01:24;;;;;;;;;;;;;;;18.99;73.85;95483.47;5078622;28;1099;-57
2023/09/01 06:03:50;;;;;;;;;;;;;;;19.08;72.61;95487.66;5078688;28;992;-57
2023/09/01 06:06:16;;;;;;;;;;;;;;;19.17;72.85;95493.75;5086107;28;1092;-57
2023/09/01 06:08:42;;;;;;;;;;;;;;;19.31;74.17;95498.13;5096452;28;1913;-57
2023/09/01 06:11:09;;;;;;;;;;;;;;;19.42;72.93;95504.81;5096318;28;1157;-56
2023/09/01 06:13:35;;;;;;;;;;;;;;;19.51;73.00;95503.56;5096547;28;1061;-57
2023/09/01 06:16:03;;;;;;;;;;;;;;;19.68;72.59;95506.69;5096225;28;1040;-56
2023/09/01 06:18:29;;;;;;;;;;;;;;;19.84;72.56;95516.31;5096267;28;1039;-57
2023/09/01 06:20:55;;;;;;;;;;;;;;;19.93;74.05;95511.50;5099134;28;1209;-57
2023/09/01 06:23:21;;;;;;;;;;;;;;;19.82;74.39;95510.25;5116345;28;1080;-57
2023/09/01 06:25:47;;;;;;;;;;;;;;;19.81;74.83;95509.44;5116516;28;1028;-57
2023/09/01 06:28:13;;;;;;;;;;;;;;;19.84;74.78;95509.03;5116244;28;1909;-57
2023/09/01 06:30:42;;;;;;;;;;;;;;;20.14;73.23;95499.56;5116579;28;960;-57
2023/09/01 06:33:09;;;;;;;;;;;;;;;20.43;73.65;95503.66;5116324;28;1049;-57
2023/09/01 06:35:35;;;;;;;;;;;;;;;20.48;70.96;95503.84;5116354;28;933;-56
2023/09/01 06:38:02;;;;;;;;;;;;;;;20.46;72.47;95506.78;5116327;28;1095;-57
2023/09/01 06:40:28;;;;;;;;;;;;;;;20.49;70.51;95505.53;5116122;28;1107;-57
2023/09/01 06:42:54;;;;;;;;;;;;;;;20.78;72.05;95508.78;5116102;28;968;-57
2023/09/01 06:45:20;;;;;;;;;;;;;;;21.09;69.29;95504.44;5114814;28;1091;-57
2023/09/01 06:47:46;;;;;;;;;;;;;;;21.21;67.46;95516.31;5116080;27;1043;-56
2023/09/01 06:50:12;;;;;;;;;;;;;;;21.23;70.04;95516.91;5116086;27;1915;-57
2023/09/01 06:52:38;;;;;;;;;;;;;;;21.15;69.61;95515.28;5115100;28;1041;-57
2023/09/01 06:55:05;;;;;;;;;;;;;;;21.29;70.50;95523.38;5115876;28;1094;-56
2023/09/01 06:57:31;;;;;;;;;;;;;;;21.47;70.81;95519.91;5115666;28;1036;-57
2023/09/01 06:59:57;;;;;;;;;;;;;;;21.50;71.78;95514.03;5116111;28;1055;-57
2023/09/01 07:02:23;;;;;;;;;;;;;;;21.58;69.51;95516.50;5109007;27;1077;-57
2023/09/01 07:04:49;;;;;;;;;;;;;;;21.86;69.56;95521.50;5115445;27;1028;-57
2023/09/01 07:07:15;;;;;;;;;;;;;;;21.86;67.91;95520.66;5115462;28;1203;-57
2023/09/01 07:09:41;;;;;;;;;;;;;;;21.77;68.84;95523.66;5115786;28;1991;-57
2023/09/01 07:12:07;;;;;;;;;;;;;;;21.91;69.51;95526.25;5115526;28;1087;-57
2023/09/01 07:14:33;;;;;;;;;;;;;;;22.15;68.91;95530.84;5120629;27;2482;-57
2023/09/01 07:16:59;;;;;;;;;;;;;;;22.27;66.72;95532.88;5136242;27;945;-57
2023/09/01 07:19:25;;;;;;;;;;;;;;;22.54;66.00;95533.44;5135891;27;1044;-57
2023/09/01 07:21:51;;;;;;;;;;;;;;;22.77;65.32;95527.28;5123684;27;1157;-57
2023/09/01 07:24:17;;;;;;;;;;;;;;;22.71;62.92;95534.47;5102807;28;1184;-58
2023/09/01 07:26:43;;;;;;;;;;;;;;;22.74;64.10;95528.56;5094821;28;1036;-58
2023/09/01 07:29:09;;;;;;;;;;;;;;;23.02;64.29;95529.06;5094892;28;1906;-57
2023/09/01 07:31:35;;;;;;;;;;;;;;;23.08;65.49;95525.44;5095009;28;969;-58
2023/09/01 07:34:02;;;;;;;;;;;;;;;23.28;65.35;95530.66;5094405;28;1240;-57
2023/09/01 07:36:28;;;;;;;;;;;;;;;23.52;64.47;95523.34;5094601;28;1107;-57
2023/09/01 07:38:54;;;;;;;;;;;;;;;23.66;62.10;95526.72;5094729;28;1041;-58
2023/09/01 07:41:20;;;;;;;;;;;;;;;23.76;62.38;95519.59;5094415;28;1108;-58
2023/09/01 07:43:46;;;;;;;;;;;;;;;23.80;60.60;95524.63;5093729;28;1024;-58
2023/09/01 07:46:12;;;;;;;;;;;;;;;23.96;61.05;95527.50;5094676;28;984;-58
2023/09/01 07:48:38;;;;;;;;;;;;;;;23.92;62.33;95526.31;5076395;28;1906;-58
2023/09/01 07:51:04;;;;;;;;;;;;;;;24.06;60.84;95529.66;5076327;28;1048;-58
2023/09/01 07:53:30;;;;;;;;;;;;;;;24.35;61.03;95527.84;5094240;28;1025;-58
2023/09/01 07:55:56;;;;;;;;;;;;;;;24.46;61.36;95528.09;5094381;28;1037;-56
2023/09/01 07:58:22;;;;;;;;;;;;;;;24.52;60.15;95529.91;5094468;28;1037;-57
2023/09/01 08:00:48;;;;;;;;;;;;;;;24.41;61.16;95528.78;5094517;28;992;-57
2023/09/01 08:03:15;;;;;;;;;;;;;;;24.61;56.84;95533.94;5093730;28;1096;-57
2023/09/01 08:05:41;;;;;;;;;;;;;;;24.89;57.54;95524.09;5100523;28;1302;-57
2023/09/01 08:08:07;;;;;;;;;;;;;;;25.10;59.45;95528.09;5114649;28;1989;-57
2023/09/01 08:10:34;;;;;;;;;;;;;;;24.81;56.64;95521.75;5114638;28;980;-57
2023/09/01 08:13:00;;;;;;;;;;;;;;;24.97;56.99;95521.00;5114296;28;996;-57
2023/09/01 08:15:26;;;;;;;;;;;;;;;25.19;57.68;95518.41;5113916;28;1123;-57
2023/09/01 08:17:52;;;;;;;;;;;;;;;25.39;56.88;95523.47;5114434;28;1003;-57
2023/09/01 08:20:18;;;;;;;;;;;;;;;25.35;56.67;95525.06;5114472;28;1035;-57
2023/09/01 08:22:44;;;;;;;;;;;;;;;25.57;56.06;95514.22;5114131;28;1212;-57
2023/09/01 08:25:11;;;;;;;;;;;;;;;25.66;53.34;95514.66;5113771;28;1036;-57
2023/09/01 08:27:37;;;;;;;;;;;;;;;25.77;52.84;95518.41;5114338;28;988;-57
2023/09/01 08:30:03;;;;;;;;;;;;;;;25.79;53.60;95518.97;5114282;28;1909;-57
2023/09/01 08:32:29;;;;;;;;;;;;;;;25.97;55.22;95523.41;5114294;28;1060;-57
2023/09/01 08:34:55;;;;;;;;;;;;;;;26.06;54.05;95517.25;5113874;28;1125;-57
2023/09/01 08:37:21;;;;;;;;;;;;;;;26.04;53.85;95518.59;5114261;28;1004;-57
2023/09/01 08:39:47;;;;;;;;;;;;;;;26.06;54.06;95516.44;5114024;28;1008;-57
2023/09/01 08:42:14;;;;;;;;;;;;;;;26.13;53.68;95517.09;5095678;28;1028;-57
2023/09/01 08:44:41;;;;;;;;;;;;;;;26.14;53.27;95512.44;5113869;28;1198;-57
2023/09/01 08:47:09;;;;;;;;;;;;;;;26.21;52.07;95513.94;5113864;28;1115;-57
2023/09/01 08:49:35;;;;;;;;;;;;;;;26.36;52.79;95520.72;5114079;28;1905;-57
2023/09/01 08:52:02;;;;;;;;;;;;;;;26.30;52.46;95515.16;5113949;28;996;-57
2023/09/01 08:54:30;;;;;;;;;;;;;;;26.54;52.22;95509.50;5113656;28;1172;-57
2023/09/01 08:56:56;;;;;;;;;;;;;;;26.74;51.20;95511.69;5096017;28;1060;-56
2023/09/01 08:59:24;;;;;;;;;;;;;;;26.69;49.16;95514.34;5113664;28;1095;-57
2023/09/01 09:01:50;;;;;;;;;;;;;;;26.55;48.33;95515.78;5113998;28;963;-56
2023/09/01 09:04:16;;;;;;;;;;;;;;;26.56;50.34;95509.22;5095539;28;1059;-57
2023/09/01 09:06:42;;;;;;;;;;;;;;;26.62;49.88;95514.56;5113507;28;1065;-57
2023/09/01 09:09:16;;;;;;;;;;;;;;;26.80;48.43;95512.59;5113621;28;2012;-56
2023/09/01 09:12:00;;;;;;;;;;;;;;;26.91;48.69;95506.16;5113976;28;965;-57
2023/09/01 09:14:27;;;;;;;;;;;;;;;26.92;48.11;95505.06;5113302;28;1019;-57
2023/09/01 09:16:54;;;;;;;;;;;;;;;26.96;49.32;95502.63;5113526;28;1020;-57
2023/09/01 09:19:21;;;;;;;;;;;;;;;26.92;48.61;95505.06;5114279;27;2767;-57
2023/09/01 09:21:47;;;;;;;;;;;;;;;26.97;48.73;95498.81;5125194;28;1166;-57
2023/09/01 09:24:13;;;;;;;;;;;;;;;27.01;46.38;95500.78;5126172;28;1079;-57
2023/09/01 09:26:39;;;;;;;;;;;;;;;27.24;47.42;95498.84;5113462;28;1041;-58
2023/09/01 09:29:06;;;;;;;;;;;;;;;27.25;47.04;95492.31;5128849;27;2529;-58
2023/09/01 09:31:40;;;;;;;;;;;;;;;27.21;47.03;95497.44;5133882;28;1115;-58
2023/09/01 09:34:16;;;;;;;;;;;;;;;27.29;47.70;95490.69;5134007;28;1229;-58
2023/09/01 09:36:43;;;;;;;;;;;;;;;27.22;47.18;95487.28;5134219;28;1055;-57
2023/09/01 09:39:22;;;;;;;;;;;;;;;27.18;48.01;95486.16;5133914;28;1036;-57
2023/09/01 09:41:49;;;;;;;;;;;;;;;27.23;47.51;95488.94;5133890;28;1024;-58
2023/09/01 09:44:22;;;;;;;;;;;;;;;27.20;47.38;95487.53;5132448;27;2487;-58
2023/09/01 09:46:49;;;;;;;;;;;;;;;27.34;47.36;95487.16;5133789;28;1878;-57
2023/09/01 09:49:15;;;;;;;;;;;;;;;27.15;45.01;95489.41;5133613;28;1986;-58
2023/09/01 09:51:42;;;;;;;;;;;;;;;27.24;45.94;95477.72;5134192;28;1052;-57
2023/09/01 09:54:10;;;;;;;;;;;;;;;27.34;45.53;95471.53;5127329;28;1051;-58
2023/09/01 09:56:38;;;;;;;;;;;;;;;27.49;45.05;95475.50;5113102;28;985;-57
2023/09/01 09:59:05;;;;;;;;;;;;;;;27.42;44.43;95479.28;5112577;28;1048;-57
2023/09/01 10:01:34;;;;;;;;;;;;;;;27.40;40.77;95483.41;5112454;28;976;-57
2023/09/01 10:04:07;;;;;;;;;;;;;;;27.46;43.63;95466.69;5117153;27;2574;-57
2023/09/01 10:06:36;;;;;;;;;;;;;;;27.75;43.49;95471.06;5154978;27;1230;-55
2023/09/01 10:09:05;;;;;;;;;;;;;;;27.72;43.78;95472.44;5158077;27;1959;-57
2023/09/01 10:11:32;;;;;;;;;;;;;;;27.53;44.00;95468.44;5158188;27;969;-57
2023/09/01 10:13:59;;;;;;;;;;;;;;;27.59;45.28;95467.38;5153638;27;1036;-57
2023/09/01 10:16:25;;;;;;;;;;;;;;;27.46;44.08;95466.69;5137299;27;964;-57
2023/09/01 10:18:52;;;;;;;;;;;;;;;27.42;43.19;95462.81;5137382;27;973;-57
2023/09/01 10:21:20;;;;;;;;;;;;;;;27.31;44.50;95466.56;5111549;28;1169;-57
2023/09/01 10:23:46;;;;;;;;;;;;;;;27.30;42.49;95466.81;5116162;28;1036;-57
2023/09/01 10:26:34;;;;;;;;;;;;;;;27.15;43.56;95471.03;5116438;28;1048;-57
2023/09/01 10:29:00;;;;;;;;;;;;;;;27.08;42.19;95473.97;5116505;28;1914;-57
2023/09/01 10:31:29;;;;;;;;;;;;;;;27.19;42.43;95466.69;5116250;28;1082;-57
2023/09/01 10:34:14;;;;;;;;;;;;;;;27.36;43.14;95466.63;5137637;27;2482;-57
2023/09/01 10:36:40;;;;;;;;;;;;;;;27.48;43.53;95460.94;5136827;27;1043;-57
2023/09/01 10:39:19;;;;;;;;;;;;;;;27.76;43.91;95457.09;5136754;27;1003;-56
2023/09/01 10:41:58;;;;;;;;;;;;;;;27.54;41.90;95450.84;5137055;27;1056;-57
2023/09/01 10:44:39;;;;;;;;;;;;;;;27.51;43.58;95446.72;5136450;27;969;-57
2023/09/01 10:47:24;;;;;;;;;;;;;;;27.49;42.62;95442.56;5136627;27;1032;-56
2023/09/01 10:49:57;;;;;;;;;;;;;;;27.48;42.46;95446.41;5136426;27;1914;-56
2023/09/01 10:52:23;;;;;;;;;;;;;;;27.32;40.64;95456.41;5136635;27;992;-57
2023/09/01 10:55:05;;;;;;;;;;;;;;;27.30;41.15;95444.84;5136191;27;1048;-57
2023/09/01 10:57:45;;;;;;;;;;;;;;;27.43;42.77;95442.53;5142886;27;2532;-56
2023/09/01 11:00:26;;;;;;;;;;;;;;;27.52;41.28;95437.38;5156945;27;1091;-57
2023/09/01 11:02:53;;;;;;;;;;;;;;;27.54;42.21;95434.38;5150950;27;1045;-55
2023/09/01 11:05:38;;;;;;;;;;;;;;;27.70;42.92;95433.41;5132324;27;1143;-56
2023/09/01 11:08:10;;;;;;;;;;;;;;;27.65;41.81;95436.94;5115287;28;1077;-56
2023/09/01 11:10:38;;;;;;;;;;;;;;;27.61;40.60;95441.31;5115077;28;971;-56
2023/09/01 11:13:13;;;;;;;;;;;;;;;27.64;42.68;95428.94;5115531;28;1036;-56
2023/09/01 11:15:43;;;;;;;;;;;;;;;27.81;42.14;95426.91;5115766;28;1044;-56
2023/09/01 11:18:22;;;;;;;;;;;;;;;28.04;41.72;95422.97;5114656;28;1045;-56
2023/09/01 11:20:50;;;;;;;;;;;;;;;27.93;40.73;95423.19;5102722;28;2948;-56
2023/09/01 11:23:20;;;;;;;;;;;;;;;27.97;41.62;95416.06;5095120;28;1064;-56
2023/09/01 11:25:56;;;;;;;;;;;;;;;27.85;40.67;95410.72;5076874;28;1025;-55
2023/09/01 11:28:22;;;;;;;;;;;;;;;27.79;39.43;95414.50;5094777;28;1987;-56
2023/09/01 11:30:55;;;;;;;;;;;;;;;27.77;39.21;95411.19;5094448;28;1086;-56
2023/09/01 11:33:22;;;;;;;;;;;;;;;27.77;39.77;95406.53;5094978;28;1065;-55
2023/09/01 11:35:49;;;;;;;;;;;;;;;27.90;39.87;95402.53;5094683;28;978;-56
2023/09/01 11:38:21;;;;;;;;;;;;;;;28.03;39.81;95404.00;5094888;28;1045;-55
2023/09/01 11:40:48;;;;;;;;;;;;;;;28.08;39.68;95401.28;5094526;28;1043;-56
2023/09/01 11:43:14;;;;;;;;;;;;;;;28.06;40.09;95397.13;5094776;28;1061;-56
2023/09/01 11:45:45;;;;;;;;;;;;;;;28.01;38.58;95400.69;5094788;28;1012;-56
2023/09/01 11:48:11;;;;;;;;;;;;;;;28.02;36.62;95405.09;5094382;28;964;-55
2023/09/01 11:50:42;;;;;;;;;;;;;;;28.19;38.55;95394.75;5094381;28;968;-57
2023/09/01 11:53:08;;;;;;;;;;;;;;;28.21;39.89;95388.97;5094581;28;981;-56
2023/09/01 11:55:37;;;;;;;;;;;;;;;28.06;37.77;95392.50;5094575;28;1051;-56
2023/09/01 11:58:03;;;;;;;;;;;;;;;28.11;36.99;95395.25;5094414;28;954;-56
2023/09/01 12:00:33;;;;;;;;;;;;;;;28.10;37.12;95401.84;5093905;28;1071;-57
2023/09/01 12:02:59;;;;;;;;;;;;;;;28.26;38.22;95380.75;5094210;28;1057;-57
2023/09/01 12:05:32;;;;;;;;;;;;;;;28.38;37.97;95386.88;5098576;28;1131;-57
2023/09/01 12:08:02;;;;;;;;;;;;;;;28.49;36.98;95385.00;5114682;28;1064;-57
2023/09/01 12:10:28;;;;;;;;;;;;;;;28.46;35.25;95391.03;5114029;28;1988;-57
2023/09/01 12:13:05;;;;;;;;;;;;;;;28.31;38.15;95377.22;5114684;28;953;-57
2023/09/01 12:15:31;;;;;;;;;;;;;;;28.41;38.18;95375.34;5114250;28;985;-57
2023/09/01 12:17:57;;;;;;;;;;;;;;;28.48;37.98;95371.53;5114502;28;1040;-55
2023/09/01 12:20:23;;;;;;;;;;;;;;;28.51;38.14;95369.03;5113841;28;1203;-56
2023/09/01 12:22:49;;;;;;;;;;;;;;;28.53;38.01;95371.56;5114174;28;1190;-56
2023/09/01 12:25:15;;;;;;;;;;;;;;;28.33;38.45;95364.03;5114168;28;1130;-56
2023/09/01 12:27:41;;;;;;;;;;;;;;;28.19;37.28;95363.69;5117128;27;2491;-56
2023/09/01 12:30:07;;;;;;;;;;;;;;;28.09;37.47;95372.69;5131198;27;1909;-56
2023/09/01 12:32:33;;;;;;;;;;;;;;;28.18;37.70;95367.53;5127421;27;2497;-56
2023/09/01 12:34:59;;;;;;;;;;;;;;;28.21;36.73;95362.34;5134838;27;957;-55
2023/09/01 12:37:25;;;;;;;;;;;;;;;28.06;37.52;95367.75;5134710;27;1080;-56
2023/09/01 12:39:51;;;;;;;;;;;;;;;28.11;37.88;95369.69;5134325;27;1858;-57
2023/09/01 12:42:17;;;;;;;;;;;;;;;28.04;37.41;95365.28;5134732;27;1031;-55
2023/09/01 12:44:43;;;;;;;;;;;;;;;28.11;37.97;95359.50;5134370;27;1016;-55
2023/09/01 12:47:09;;;;;;;;;;;;;;;28.10;37.43;95351.56;5134448;27;1027;-55
2023/09/01 12:49:36;;;;;;;;;;;;;;;28.21;38.13;95356.84;5134690;27;1990;-55
2023/09/01 12:52:02;;;;;;;;;;;;;;;28.38;36.97;95358.53;5134224;27;1060;-56
2023/09/01 12:54:28;;;;;;;;;;;;;;;28.34;36.87;95354.69;5134389;27;977;-56
2023/09/01 12:56:54;;;;;;;;;;;;;;;28.49;37.08;95351.16;5133809;27;978;-56
2023/09/01 12:59:20;;;;;;;;;;;;;;;28.54;36.41;95353.97;5133388;27;921;-55
2023/09/01 13:01:46;;;;;;;;;;;;;;;28.64;36.50;95348.50;5134223;27;1103;-54